createdAt,value
2019-01-12T00:00:59.549Z,23.93
2019-01-12T00:03:28.496Z,25.07
2019-01-12T00:05:57.538Z,15.47
2019-01-12T00:08:26.237Z,16.80
2019-01-12T00:10:55.051Z,28.40
2019-01-12T00:13:23.761Z,13.50
2019-01-12T00:15:52.482Z,24.20
2019-01-12T00:18:21.613Z,23.20
2019-01-12T00:20:50.336Z,14.40
2019-01-12T00:23:19.139Z,15.83
2019-01-12T00:25:47.900Z,20.53
2019-01-12T00:28:16.644Z,13.40
2019-01-12T00:30:45.596Z,10.30
2019-01-12T00:33:14.316Z,11.30
2019-01-12T00:35:43.293Z,14.50
2019-01-12T00:38:12.019Z,12.80
2019-01-12T00:40:40.781Z,12.60
2019-01-12T00:43:09.813Z,16.40
2019-01-12T00:45:38.521Z,8.77
2019-01-12T00:48:07.593Z,12.13
2019-01-12T00:50:36.306Z,13.70
2019-01-12T00:53:05.092Z,8.20
2019-01-12T00:55:37.113Z,10.80
2019-01-12T00:58:06.433Z,9.47
2019-01-12T01:00:35.537Z,15.53
2019-01-12T01:03:04.574Z,8.40
2019-01-12T01:05:33.628Z,14.67
2019-01-12T01:08:02.536Z,12.00
2019-01-12T01:10:31.332Z,9.30
2019-01-12T01:13:00.104Z,10.13
2019-01-12T01:15:28.815Z,9.87
2019-01-12T01:17:57.624Z,10.00
2019-01-12T01:20:26.661Z,4.73
2019-01-12T01:22:58.371Z,11.07
2019-01-12T01:25:27.330Z,6.50
2019-01-12T01:27:56.032Z,7.53
2019-01-12T01:30:25.084Z,5.63
2019-01-12T01:32:54.080Z,6.07
2019-01-12T01:35:23.057Z,3.93
2019-01-12T01:37:51.934Z,8.00
2019-01-12T01:40:20.718Z,8.70
2019-01-12T01:42:49.813Z,4.03
2019-01-12T01:45:18.865Z,5.33
2019-01-12T01:47:47.568Z,6.10
2019-01-12T01:50:16.513Z,4.77
2019-01-12T01:52:45.461Z,7.37
2019-01-12T01:55:14.325Z,4.47
2019-01-12T01:57:43.110Z,4.30
2019-01-12T02:00:14.384Z,8.70
2019-01-12T02:02:43.273Z,5.33
2019-01-12T02:05:12.360Z,4.03
2019-01-12T02:07:41.511Z,9.17
2019-01-12T02:10:14.117Z,9.37
2019-01-12T02:12:42.818Z,6.10
2019-01-12T02:15:12.145Z,8.63
2019-01-12T02:17:41.180Z,5.00
2019-01-12T02:20:10.185Z,7.53
2019-01-12T02:22:38.909Z,6.23
2019-01-12T02:25:07.936Z,6.13
2019-01-12T02:27:36.897Z,8.07
2019-01-12T02:30:09.805Z,6.10
2019-01-12T02:32:38.511Z,7.03
2019-01-12T02:35:07.716Z,3.80
2019-01-12T02:37:36.482Z,4.77
2019-01-12T02:40:06.166Z,4.97
2019-01-12T02:42:34.868Z,7.70
2019-01-12T02:45:04.734Z,3.57
2019-01-12T02:47:33.462Z,4.67
2019-01-12T02:50:02.176Z,6.50
2019-01-12T02:52:30.880Z,9.43
2019-01-12T02:54:59.601Z,6.73
2019-01-12T02:57:28.392Z,4.90
2019-01-12T02:59:57.101Z,4.57
2019-01-12T03:02:26.064Z,3.53
2019-01-12T03:04:55.254Z,4.03
2019-01-12T03:07:24.473Z,5.63
2019-01-12T03:09:53.486Z,3.80
2019-01-12T03:12:22.214Z,5.73
2019-01-12T03:14:50.950Z,6.60
2019-01-12T03:17:20.118Z,6.03
2019-01-12T03:19:49.329Z,5.47
2019-01-12T03:22:18.021Z,6.10
2019-01-12T03:24:46.996Z,7.60
2019-01-12T03:27:16.181Z,6.67
2019-01-12T03:29:45.360Z,7.47
2019-01-12T03:32:14.143Z,9.77
2019-01-12T03:34:42.868Z,11.77
2019-01-12T03:37:11.825Z,6.63
2019-01-12T03:39:41.007Z,6.90
2019-01-12T03:42:09.728Z,8.03
2019-01-12T03:44:38.710Z,15.80
2019-01-12T03:47:07.654Z,9.20
2019-01-12T03:49:36.596Z,7.40
2019-01-12T03:52:05.550Z,8.33
2019-01-12T03:54:34.510Z,8.83
2019-01-12T03:57:03.273Z,8.30
2019-01-12T03:59:32.240Z,6.97
2019-01-12T04:02:01.428Z,8.00
2019-01-12T04:04:30.140Z,7.00
2019-01-12T04:06:58.862Z,7.10
2019-01-12T04:09:27.803Z,8.20
2019-01-12T04:11:56.762Z,9.10
2019-01-12T04:14:25.938Z,6.30
2019-01-12T04:16:54.630Z,7.47
2019-01-12T04:19:23.594Z,7.37
2019-01-12T04:21:52.804Z,4.43
2019-01-12T04:24:21.758Z,6.97
2019-01-12T04:26:50.721Z,8.93
2019-01-12T04:29:19.433Z,5.60
2019-01-12T04:31:48.136Z,9.23
2019-01-12T04:34:17.601Z,8.33
2019-01-12T04:36:46.361Z,5.70
2019-01-12T04:39:15.065Z,4.70
2019-01-12T04:41:43.800Z,7.07
2019-01-12T04:44:12.586Z,5.83
2019-01-12T04:46:41.781Z,3.83
2019-01-12T04:49:11.068Z,5.70
2019-01-12T04:51:40.354Z,4.70
2019-01-12T04:54:09.395Z,8.13
2019-01-12T04:56:38.359Z,4.93
2019-01-12T04:59:07.046Z,5.57
2019-01-12T05:01:35.744Z,4.87
2019-01-12T05:04:04.810Z,5.80
2019-01-12T05:06:33.783Z,4.40
2019-01-12T05:09:02.801Z,7.17
2019-01-12T05:11:31.514Z,6.67
2019-01-12T05:14:00.929Z,3.70
2019-01-12T05:16:29.636Z,6.10
2019-01-12T05:18:58.878Z,5.10
2019-01-12T05:21:27.602Z,3.53
2019-01-12T05:23:56.303Z,10.23
2019-01-12T05:26:25.487Z,5.47
2019-01-12T05:28:54.432Z,5.73
2019-01-12T05:31:23.146Z,6.73
2019-01-12T05:33:52.139Z,6.70
2019-01-12T05:36:21.078Z,9.10
2019-01-12T05:38:50.279Z,5.77
2019-01-12T05:41:19.047Z,6.77
2019-01-12T05:43:49.489Z,8.67
2019-01-12T05:46:18.208Z,4.70
2019-01-12T05:48:48.142Z,4.00
2019-01-12T05:51:16.857Z,5.93
2019-01-12T05:53:45.581Z,12.20
2019-01-12T05:56:34.018Z,7.40
2019-01-12T05:59:03.340Z,5.17
2019-01-12T06:01:32.061Z,4.27
2019-01-12T06:04:01.125Z,4.23
2019-01-12T06:06:30.109Z,3.40
2019-01-12T06:08:59.051Z,4.40
2019-01-12T06:11:28.485Z,3.87
2019-01-12T06:13:57.430Z,4.47
2019-01-12T06:16:26.493Z,3.23
2019-01-12T06:18:55.437Z,2.97
2019-01-12T06:21:24.145Z,3.10
2019-01-12T06:23:53.125Z,8.33
2019-01-12T06:26:22.404Z,6.93
2019-01-12T06:28:51.107Z,3.10
2019-01-12T06:31:20.385Z,4.80
2019-01-12T06:33:49.313Z,4.30
2019-01-12T06:36:18.284Z,7.93
2019-01-12T06:38:47.224Z,5.50
2019-01-12T06:41:16.266Z,3.40
2019-01-12T06:43:45.473Z,7.70
2019-01-12T06:46:14.440Z,4.90
2019-01-12T06:48:43.401Z,3.30
2019-01-12T06:51:12.170Z,4.57
2019-01-12T06:53:42.084Z,2.73
2019-01-12T06:56:11.092Z,5.90
2019-01-12T06:58:39.956Z,3.60
2019-01-12T07:01:08.936Z,2.30
2019-01-12T07:03:37.625Z,2.87
2019-01-12T07:06:06.577Z,4.33
2019-01-12T07:08:35.564Z,5.43
2019-01-12T07:11:04.361Z,3.40
2019-01-12T07:13:33.064Z,3.73
2019-01-12T07:16:01.798Z,7.30
2019-01-12T07:18:30.735Z,10.73
2019-01-12T07:20:59.697Z,6.93
2019-01-12T07:23:28.658Z,8.93
2019-01-12T07:25:57.623Z,12.57
2019-01-12T07:28:26.581Z,9.77
2019-01-12T07:30:55.784Z,18.73
2019-01-12T07:33:24.762Z,11.40
2019-01-12T07:35:53.761Z,15.13
2019-01-12T07:38:22.509Z,11.87
2019-01-12T07:40:51.450Z,15.07
2019-01-12T07:43:20.177Z,11.03
2019-01-12T07:45:49.141Z,12.20
2019-01-12T07:48:17.834Z,8.40
2019-01-12T07:50:46.805Z,6.53
2019-01-12T07:53:15.525Z,8.10
2019-01-12T07:55:44.246Z,8.83
2019-01-12T07:58:13.060Z,6.30
2019-01-12T08:00:42.244Z,10.10
2019-01-12T08:03:11.184Z,10.20
2019-01-12T08:05:39.900Z,9.03
2019-01-12T08:08:08.621Z,11.07
2019-01-12T08:10:37.317Z,9.57
2019-01-12T08:13:06.289Z,10.60
2019-01-12T08:15:34.990Z,9.00
2019-01-12T08:18:03.975Z,12.43
2019-01-12T08:20:32.670Z,10.73
2019-01-12T08:23:01.649Z,9.47
2019-01-12T08:25:30.858Z,14.27
2019-01-12T08:28:00.304Z,10.63
2019-01-12T08:30:29.483Z,11.80
2019-01-12T08:32:58.317Z,12.27
2019-01-12T08:35:27.513Z,10.53
2019-01-12T08:37:57.728Z,17.13
2019-01-12T08:40:26.709Z,16.90
2019-01-12T08:42:55.673Z,18.47
2019-01-12T08:45:24.613Z,18.77
2019-01-12T08:47:53.950Z,21.90
2019-01-12T08:50:23.304Z,19.70
2019-01-12T08:52:52.344Z,25.30
2019-01-12T08:55:21.133Z,18.00
2019-01-12T08:57:50.585Z,27.03
2019-01-12T09:00:21.434Z,23.83
2019-01-12T09:02:50.530Z,27.77
2019-01-12T10:10:58.722Z,41.77
2019-01-12T10:13:27.922Z,36.53
2019-01-12T10:15:56.630Z,29.70
2019-01-12T10:21:48.794Z,31.93
2019-01-12T10:24:18.137Z,29.07
2019-01-12T10:26:47.082Z,32.87
2019-01-12T10:29:16.301Z,35.43
2019-01-12T10:31:45.301Z,36.60
2019-01-12T10:34:14.460Z,28.33
2019-01-12T10:36:43.778Z,29.13
2019-01-12T10:39:17.883Z,30.90
2019-01-12T10:41:43.621Z,32.90
2019-01-12T10:44:12.720Z,35.23
2019-01-12T10:46:42.226Z,37.30
2019-01-12T10:49:10.933Z,38.03
2019-01-12T10:51:39.957Z,37.13
2019-01-12T10:54:08.852Z,40.20
2019-01-12T10:56:38.124Z,39.70
2019-01-12T10:59:07.142Z,44.87
2019-01-12T11:01:35.880Z,42.83
2019-01-12T11:04:05.494Z,46.10
2019-01-12T11:06:34.217Z,47.23
2019-01-12T11:09:04.389Z,49.77
2019-01-12T11:11:33.550Z,46.50
2019-01-12T11:14:02.548Z,44.33
2019-01-12T11:16:31.565Z,46.77
2019-01-12T11:19:00.581Z,42.17
2019-01-12T11:21:29.581Z,54.37
2019-01-12T11:23:58.635Z,50.00
2019-01-12T11:26:27.846Z,49.90
2019-01-12T11:28:56.593Z,52.47
2019-01-12T11:31:25.337Z,55.97
2019-01-12T11:33:54.193Z,56.03
2019-01-12T11:36:43.847Z,50.30
2019-01-12T11:39:12.822Z,56.40
2019-01-12T11:41:41.761Z,54.40
2019-01-12T11:44:16.057Z,57.83
2019-01-12T11:46:44.765Z,49.23
2019-01-12T11:49:18.886Z,51.07
2019-01-12T11:51:47.873Z,55.37
2019-01-12T11:54:18.302Z,60.87
2019-01-12T11:56:47.470Z,52.20
2019-01-12T11:59:16.489Z,54.07
2019-01-12T12:01:45.680Z,53.47
2019-01-12T12:04:14.991Z,55.83
2019-01-12T12:06:43.720Z,58.63
2019-01-12T12:09:12.425Z,52.00
2019-01-12T12:11:41.364Z,52.10
2019-01-12T12:14:10.349Z,56.97
2019-01-12T12:16:39.072Z,57.50
2019-01-12T12:19:08.122Z,63.20
2019-01-12T12:21:37.117Z,57.70
2019-01-12T12:24:05.853Z,53.30
2019-01-12T12:26:34.862Z,56.73
2019-01-12T12:29:04.677Z,52.97
2019-01-12T12:31:33.395Z,64.63
2019-01-12T12:34:02.565Z,61.77
2019-01-12T12:36:31.326Z,59.63
2019-01-12T12:39:00.491Z,67.67
2019-01-12T12:41:29.193Z,68.23
2019-01-12T12:43:58.282Z,55.50
2019-01-12T12:46:27.390Z,77.60
2019-01-12T12:48:56.419Z,57.60
2019-01-12T12:51:25.444Z,54.23
2019-01-12T12:53:54.407Z,64.07
2019-01-12T12:56:23.509Z,61.00
2019-01-12T12:58:52.245Z,45.87
2019-01-12T13:01:21.098Z,47.20
2019-01-12T13:03:50.068Z,47.13
2019-01-12T13:06:19.177Z,53.63
2019-01-12T13:08:48.719Z,42.90
2019-01-12T13:11:17.810Z,42.00
2019-01-12T13:13:46.857Z,48.80
2019-01-12T13:16:15.598Z,37.40
2019-01-12T13:18:44.537Z,57.40
2019-01-12T13:21:13.395Z,44.60
2019-01-12T13:23:42.404Z,33.70
2019-01-12T13:26:11.112Z,29.57
2019-01-12T13:28:40.053Z,34.70
2019-01-12T13:31:09.663Z,28.03
2019-01-12T13:33:38.365Z,26.63
2019-01-12T13:36:08.665Z,35.40
2019-01-12T13:38:37.685Z,30.00
2019-01-12T13:41:06.413Z,31.00
2019-01-12T13:43:54.368Z,26.93
2019-01-12T13:46:23.386Z,35.07
2019-01-12T13:48:52.102Z,25.70
2019-01-12T13:51:21.229Z,21.63
2019-01-12T13:53:50.265Z,18.83
2019-01-12T13:56:19.272Z,21.30
2019-01-12T13:58:48.585Z,16.67
2019-01-12T14:01:17.289Z,18.50
2019-01-12T14:03:46.250Z,16.03
2019-01-12T14:06:15.328Z,17.77
2019-01-12T14:08:44.023Z,17.60
2019-01-12T14:11:12.736Z,17.27
2019-01-12T14:13:42.771Z,18.80
2019-01-12T14:16:11.534Z,17.13
2019-01-12T14:18:40.981Z,19.50
2019-01-12T14:21:09.773Z,18.93
2019-01-12T14:23:38.805Z,14.37
2019-01-12T14:26:07.660Z,19.67
2019-01-12T14:28:36.733Z,18.57
2019-01-12T14:31:05.512Z,18.13
2019-01-12T14:33:34.576Z,19.13
2019-01-12T14:36:03.558Z,15.50
2019-01-12T14:38:32.256Z,19.27
2019-01-12T14:41:01.205Z,20.57
2019-01-12T14:43:30.180Z,23.50
2019-01-12T14:45:58.889Z,21.70
2019-01-12T14:48:27.842Z,24.33
2019-01-12T14:50:57.985Z,22.23
2019-01-12T14:53:29.758Z,31.50
2019-01-12T14:55:58.470Z,17.50
2019-01-12T14:58:27.209Z,24.10
2019-01-12T15:00:55.932Z,27.50
2019-01-12T15:03:24.740Z,25.67
2019-01-12T15:05:54.077Z,27.10
2019-01-12T15:08:22.769Z,27.27
2019-01-12T15:10:51.825Z,22.30
2019-01-12T15:13:20.574Z,22.07
2019-01-12T15:15:49.542Z,27.03
2019-01-12T15:18:18.275Z,28.90
2019-01-12T15:20:47.366Z,23.27
2019-01-12T15:23:16.130Z,25.90
2019-01-12T15:25:45.134Z,30.77
2019-01-12T15:28:14.129Z,27.97
2019-01-12T15:30:43.070Z,24.97
2019-01-12T15:33:12.763Z,28.77
2019-01-12T15:35:43.637Z,23.43
2019-01-12T15:38:12.351Z,23.10
2019-01-12T15:40:41.054Z,24.27
2019-01-12T15:43:10.129Z,24.93
2019-01-12T15:45:38.821Z,26.00
2019-01-12T15:48:07.949Z,26.27
2019-01-12T15:50:36.944Z,31.80
2019-01-12T15:53:05.899Z,26.40
2019-01-12T15:55:34.668Z,29.10
2019-01-12T15:58:03.957Z,25.27
2019-01-12T16:00:34.037Z,26.07
2019-01-12T16:03:02.995Z,30.47
2019-01-12T16:05:31.847Z,30.93
2019-01-12T16:08:01.032Z,27.90
2019-01-12T16:10:29.844Z,33.10
2019-01-12T16:12:58.798Z,34.93
2019-01-12T16:15:28.185Z,36.20
2019-01-12T16:17:57.657Z,31.43
2019-01-12T16:20:29.420Z,32.03
2019-01-12T16:22:58.665Z,32.17
2019-01-12T16:25:27.495Z,28.53
2019-01-12T16:27:56.277Z,27.20
2019-01-12T16:30:25.068Z,25.70
2019-01-12T16:33:13.044Z,32.47
2019-01-12T16:35:41.998Z,32.93
2019-01-12T16:38:10.718Z,29.80
2019-01-12T16:40:39.777Z,27.63
2019-01-12T16:43:08.792Z,24.73
2019-01-12T16:45:37.745Z,25.97
2019-01-12T16:48:07.261Z,26.97
2019-01-12T16:50:36.029Z,22.70
2019-01-12T16:53:04.897Z,32.83
2019-01-12T16:55:34.713Z,24.37
2019-01-12T16:58:04.370Z,26.93
2019-01-12T17:00:33.320Z,27.93
2019-01-12T17:03:02.341Z,25.63
2019-01-12T17:05:31.113Z,24.37
2019-01-12T17:08:00.028Z,20.33
2019-01-12T17:10:28.785Z,26.40
2019-01-12T17:12:57.578Z,17.23
2019-01-12T17:15:26.477Z,20.10
2019-01-12T17:17:55.586Z,15.50
2019-01-12T17:20:26.485Z,17.30
2019-01-12T17:22:57.703Z,20.70
2019-01-12T17:25:26.895Z,19.17
2019-01-12T17:27:55.796Z,18.00
2019-01-12T17:30:24.869Z,19.47
2019-01-12T17:32:53.577Z,24.13
2019-01-12T17:35:22.735Z,20.33
2019-01-12T17:37:51.770Z,23.83
2019-01-12T17:40:20.918Z,12.43
2019-01-12T17:42:49.951Z,11.63
2019-01-12T17:45:20.776Z,13.90
2019-01-12T17:47:49.922Z,13.40
2019-01-12T17:50:20.333Z,12.80
2019-01-12T17:52:49.346Z,11.27
2019-01-12T17:55:20.012Z,9.80
2019-01-12T17:57:49.094Z,10.83
2019-01-12T18:00:41.965Z,11.43
2019-01-12T18:03:10.926Z,13.80
2019-01-12T18:05:43.173Z,13.87
2019-01-12T18:08:12.578Z,9.30
2019-01-12T18:10:41.694Z,13.73
2019-01-12T18:13:10.609Z,12.57
2019-01-12T18:15:39.573Z,12.73
2019-01-12T18:18:08.777Z,15.43
2019-01-12T18:20:38.044Z,25.17
2019-01-12T18:23:07.289Z,14.57
2019-01-12T18:25:36.157Z,14.53
2019-01-12T18:28:05.319Z,18.57
2019-01-12T18:30:34.201Z,14.50
2019-01-12T18:33:03.449Z,16.43
2019-01-12T18:35:32.525Z,23.30
2019-01-12T18:38:01.542Z,19.13
2019-01-12T18:40:31.539Z,20.83
2019-01-12T18:43:01.073Z,17.33
2019-01-12T18:45:30.133Z,15.47
2019-01-12T18:47:58.951Z,13.43
2019-01-12T18:50:29.110Z,16.03
2019-01-12T18:52:58.032Z,18.07
2019-01-12T18:55:27.443Z,17.70
2019-01-12T18:57:58.601Z,16.33
2019-01-12T19:00:29.550Z,13.57
2019-01-12T19:02:58.766Z,13.60
2019-01-12T19:05:27.553Z,11.80
2019-01-12T19:07:56.412Z,10.57
2019-01-12T19:10:25.502Z,12.90
2019-01-12T19:12:55.366Z,9.00
2019-01-12T19:15:26.334Z,8.50
2019-01-12T19:17:55.646Z,12.83
2019-01-12T19:20:24.545Z,9.87
2019-01-12T19:22:54.198Z,10.30
2019-01-12T19:25:23.125Z,8.70
2019-01-12T19:27:52.151Z,5.00
2019-01-12T19:30:22.270Z,12.23
2019-01-12T19:32:51.671Z,9.30
2019-01-12T19:35:20.475Z,13.40
2019-01-12T19:37:49.697Z,7.10
2019-01-12T19:40:20.905Z,8.60
2019-01-12T19:42:50.297Z,14.07
2019-01-12T19:45:19.677Z,10.90
2019-01-12T19:47:49.033Z,7.90
2019-01-12T19:50:23.176Z,12.23
2019-01-12T19:52:52.186Z,9.90
2019-01-12T19:55:21.034Z,5.80
2019-01-12T19:57:50.113Z,8.80
2019-01-12T20:00:21.504Z,9.60
2019-01-12T20:02:50.292Z,7.77
2019-01-12T20:05:19.445Z,8.07
2019-01-12T20:07:48.210Z,8.17
2019-01-12T20:10:17.725Z,9.33
2019-01-12T20:12:46.668Z,15.80
2019-01-12T20:15:18.557Z,7.13
2019-01-12T20:17:47.810Z,8.87
2019-01-12T20:20:16.900Z,7.90
2019-01-12T20:22:45.763Z,3.27
2019-01-12T20:25:17.963Z,7.63
2019-01-12T20:27:47.036Z,3.67
2019-01-12T20:30:40.066Z,8.90
2019-01-12T20:33:25.571Z,7.27
2019-01-12T20:36:24.386Z,6.40
2019-01-12T20:39:19.224Z,6.77
2019-01-12T20:42:07.808Z,10.47
2019-01-12T20:45:12.460Z,8.87
2019-01-12T20:48:34.818Z,12.43
2019-01-12T20:51:40.718Z,10.23
2019-01-12T20:54:50.609Z,5.63
2019-01-12T20:57:37.632Z,8.83
2019-01-12T21:00:46.811Z,7.63
2019-01-12T21:03:45.070Z,13.40
2019-01-12T21:06:31.924Z,12.70
2019-01-12T21:09:14.808Z,14.67
2019-01-12T21:12:27.114Z,5.30
2019-01-12T21:15:27.030Z,5.67
2019-01-12T21:17:56.470Z,2.93
2019-01-12T21:20:25.427Z,4.60
2019-01-12T21:22:56.240Z,2.80
2019-01-12T21:25:25.257Z,3.20
2019-01-12T21:27:54.306Z,2.80
2019-01-12T21:30:23.029Z,1.43
2019-01-12T21:32:51.996Z,3.60
2019-01-12T21:35:20.923Z,1.40
2019-01-12T21:37:50.191Z,3.37
2019-01-12T21:40:19.883Z,1.50
2019-01-12T21:42:48.821Z,2.87
2019-01-12T21:45:17.777Z,2.57
2019-01-12T21:47:47.499Z,0.90
2019-01-12T21:50:16.685Z,1.50
2019-01-12T21:52:46.000Z,2.60
2019-01-12T21:55:14.962Z,3.17
2019-01-12T21:57:44.064Z,0.90
2019-01-12T22:00:15.702Z,5.83
2019-01-12T22:02:45.331Z,1.27
2019-01-12T22:05:33.325Z,1.70
2019-01-12T22:08:02.613Z,1.67
2019-01-12T22:10:31.693Z,1.60
2019-01-12T22:13:01.320Z,1.90
2019-01-12T22:15:30.378Z,1.60
2019-01-12T22:17:59.100Z,3.60
2019-01-12T22:20:28.369Z,3.87
2019-01-12T22:22:57.090Z,2.60
2019-01-12T22:25:26.357Z,3.20
2019-01-12T22:27:55.114Z,6.03
2019-01-12T22:30:24.124Z,3.43
2019-01-12T22:32:52.925Z,4.70
2019-01-12T22:35:21.952Z,4.00
2019-01-12T22:37:55.461Z,3.70
2019-01-12T22:40:24.889Z,11.63
2019-01-12T22:42:54.083Z,10.80
2019-01-12T22:45:23.361Z,5.57
2019-01-12T22:47:52.915Z,12.30
2019-01-12T22:50:22.125Z,15.33
2019-01-12T22:52:51.185Z,9.47
2019-01-12T22:55:20.281Z,9.30
2019-01-12T22:57:49.180Z,8.50
2019-01-12T23:00:55.353Z,13.50
2019-01-12T23:03:24.489Z,11.87
2019-01-12T23:05:53.585Z,9.43
2019-01-12T23:08:22.673Z,11.90
2019-01-12T23:10:52.004Z,9.60
2019-01-12T23:13:21.514Z,11.00
2019-01-12T23:15:51.096Z,10.60
2019-01-12T23:18:20.835Z,19.93
2019-01-12T23:20:49.663Z,21.80
2019-01-12T23:23:18.641Z,9.53
2019-01-12T23:25:48.071Z,13.07
2019-01-12T23:28:17.157Z,10.63
2019-01-12T23:30:46.266Z,15.50
2019-01-12T23:33:15.758Z,15.60
2019-01-12T23:35:44.818Z,21.53
2019-01-12T23:38:14.171Z,18.93
2019-01-12T23:40:43.004Z,12.90
2019-01-12T23:43:12.124Z,9.30
2019-01-12T23:45:41.715Z,16.47
2019-01-12T23:48:10.689Z,14.73
2019-01-12T23:50:39.694Z,15.90
2019-01-12T23:53:08.986Z,16.23
2019-01-12T23:55:38.249Z,12.60
2019-01-12T23:58:08.771Z,17.63
